sensor_id;sensor_type;location;lat;lon;timestamp;pressure;altitude;pressure_sealevel;temperature;humidity
31538;BME280;18147;51.952;6.146;2023-05-14T00:00:32;101870.94;;;14.15;100.00
31538;BME280;18147;51.952;6.146;2023-05-14T00:03:01;101870.09;;;14.15;100.00
31538;BME280;18147;51.952;6.146;2023-05-14T00:05:29;101870.38;;;13.96;100.00
31538;BME280;18147;51.952;6.146;2023-05-14T00:07:55;101865.66;;;13.99;100.00
31538;BME280;18147;51.952;6.146;2023-05-14T00:10:20;101862.03;;;13.86;100.00
31538;BME280;18147;51.952;6.146;2023-05-14T00:12:46;101867.28;;;13.88;100.00
31538;BME280;18147;51.952;6.146;2023-05-14T00:15:12;101860.00;;;13.76;100.00
31538;BME280;18147;51.952;6.146;2023-05-14T00:17:38;101864.78;;;13.70;100.00
31538;BME280;18147;51.952;6.146;2023-05-14T00:20:05;101865.75;;;13.54;100.00
31538;BME280;18147;51.952;6.146;2023-05-14T00:22:35;101870.09;;;13.56;100.00
31538;BME280;18147;51.952;6.146;2023-05-14T00:25:01;101876.25;;;13.42;100.00
31538;BME280;18147;51.952;6.146;2023-05-14T00:27:28;101876.19;;;13.28;100.00
31538;BME280;18147;51.952;6.146;2023-05-14T00:29:53;101875.16;;;13.31;100.00
31538;BME280;18147;51.952;6.146;2023-05-14T00:32:19;101862.53;;;13.17;100.00
31538;BME280;18147;51.952;6.146;2023-05-14T00:34:48;101864.03;;;13.23;100.00
31538;BME280;18147;51.952;6.146;2023-05-14T00:37:14;101859.38;;;13.26;100.00
31538;BME280;18147;51.952;6.146;2023-05-14T00:39:42;101854.78;;;13.12;100.00
31538;BME280;18147;51.952;6.146;2023-05-14T00:42:08;101857.22;;;13.01;100.00
31538;BME280;18147;51.952;6.146;2023-05-14T00:44:38;101855.66;;;12.97;100.00
31538;BME280;18147;51.952;6.146;2023-05-14T00:47:06;101850.88;;;13.18;100.00
31538;BME280;18147;51.952;6.146;2023-05-14T00:49:35;101849.78;;;12.90;100.00
31538;BME280;18147;51.952;6.146;2023-05-14T00:52:06;101853.34;;;12.91;100.00
31538;BME280;18147;51.952;6.146;2023-05-14T00:54:33;101851.06;;;12.83;100.00
31538;BME280;18147;51.952;6.146;2023-05-14T00:57:03;101853.59;;;12.86;100.00
31538;BME280;18147;51.952;6.146;2023-05-14T00:59:31;101851.06;;;12.67;100.00
31538;BME280;18147;51.952;6.146;2023-05-14T01:01:56;101848.84;;;12.76;100.00
31538;BME280;18147;51.952;6.146;2023-05-14T01:04:22;101840.63;;;12.79;100.00
31538;BME280;18147;51.952;6.146;2023-05-14T01:07:16;101845.63;;;12.69;100.00
31538;BME280;18147;51.952;6.146;2023-05-14T01:15:29;101846.13;;;12.60;100.00
31538;BME280;18147;51.952;6.146;2023-05-14T01:18:06;101838.66;;;12.51;100.00
31538;BME280;18147;51.952;6.146;2023-05-14T01:20:36;101835.19;;;12.64;100.00
31538;BME280;18147;51.952;6.146;2023-05-14T01:23:08;101844.84;;;12.51;100.00
31538;BME280;18147;51.952;6.146;2023-05-14T01:25:33;101838.19;;;12.74;100.00
31538;BME280;18147;51.952;6.146;2023-05-14T01:28:18;101839.25;;;12.72;100.00
31538;BME280;18147;51.952;6.146;2023-05-14T01:30:56;101836.66;;;12.86;100.00
31538;BME280;18147;51.952;6.146;2023-05-14T01:33:25;101835.88;;;12.68;100.00
31538;BME280;18147;51.952;6.146;2023-05-14T01:35:53;101833.47;;;12.63;100.00
31538;BME280;18147;51.952;6.146;2023-05-14T01:38:19;101834.16;;;12.67;100.00
31538;BME280;18147;51.952;6.146;2023-05-14T01:40:46;101824.97;;;13.03;100.00
31538;BME280;18147;51.952;6.146;2023-05-14T01:43:14;101822.72;;;13.11;100.00
31538;BME280;18147;51.952;6.146;2023-05-14T01:45:41;101820.38;;;13.05;100.00
31538;BME280;18147;51.952;6.146;2023-05-14T01:48:06;101821.59;;;12.99;100.00
31538;BME280;18147;51.952;6.146;2023-05-14T01:50:32;101829.25;;;12.91;100.00
31538;BME280;18147;51.952;6.146;2023-05-14T01:52:58;101828.34;;;12.75;100.00
31538;BME280;18147;51.952;6.146;2023-05-14T01:55:24;101821.88;;;12.79;100.00
31538;BME280;18147;51.952;6.146;2023-05-14T01:57:50;101828.31;;;12.60;100.00
31538;BME280;18147;51.952;6.146;2023-05-14T02:00:17;101822.34;;;12.55;100.00
31538;BME280;18147;51.952;6.146;2023-05-14T02:02:43;101827.66;;;12.39;100.00
31538;BME280;18147;51.952;6.146;2023-05-14T02:05:11;101816.88;;;12.25;100.00
31538;BME280;18147;51.952;6.146;2023-05-14T02:07:37;101825.41;;;12.32;100.00
31538;BME280;18147;51.952;6.146;2023-05-14T02:10:03;101814.88;;;12.29;100.00
31538;BME280;18147;51.952;6.146;2023-05-14T02:12:32;101812.75;;;12.35;100.00
31538;BME280;18147;51.952;6.146;2023-05-14T02:14:58;101810.72;;;12.07;100.00
31538;BME280;18147;51.952;6.146;2023-05-14T02:17:25;101818.88;;;12.04;100.00
31538;BME280;18147;51.952;6.146;2023-05-14T02:19:50;101813.59;;;11.87;100.00
31538;BME280;18147;51.952;6.146;2023-05-14T02:22:16;101819.84;;;12.03;100.00
31538;BME280;18147;51.952;6.146;2023-05-14T02:24:45;101807.09;;;12.08;100.00
31538;BME280;18147;51.952;6.146;2023-05-14T02:27:11;101803.91;;;12.17;100.00
31538;BME280;18147;51.952;6.146;2023-05-14T02:29:37;101802.56;;;12.26;100.00
31538;BME280;18147;51.952;6.146;2023-05-14T02:32:07;101803.91;;;12.17;100.00
31538;BME280;18147;51.952;6.146;2023-05-14T02:34:33;101797.19;;;12.10;100.00
31538;BME280;18147;51.952;6.146;2023-05-14T02:36:59;101803.91;;;11.84;100.00
31538;BME280;18147;51.952;6.146;2023-05-14T02:39:24;101801.31;;;12.00;100.00
31538;BME280;18147;51.952;6.146;2023-05-14T02:41:50;101798.88;;;11.78;100.00
31538;BME280;18147;51.952;6.146;2023-05-14T02:44:15;101798.00;;;11.78;100.00
31538;BME280;18147;51.952;6.146;2023-05-14T02:46:44;101803.84;;;11.86;100.00
31538;BME280;18147;51.952;6.146;2023-05-14T02:49:10;101796.59;;;11.88;100.00
31538;BME280;18147;51.952;6.146;2023-05-14T02:51:36;101809.56;;;11.78;100.00
31538;BME280;18147;51.952;6.146;2023-05-14T02:54:01;101806.25;;;11.73;100.00
31538;BME280;18147;51.952;6.146;2023-05-14T02:56:28;101805.41;;;11.73;100.00
31538;BME280;18147;51.952;6.146;2023-05-14T02:58:53;101803.91;;;11.67;100.00
31538;BME280;18147;51.952;6.146;2023-05-14T03:01:19;101807.97;;;11.74;100.00
31538;BME280;18147;51.952;6.146;2023-05-14T03:03:45;101799.34;;;11.69;100.00
31538;BME280;18147;51.952;6.146;2023-05-14T03:06:10;101803.22;;;11.63;100.00
31538;BME280;18147;51.952;6.146;2023-05-14T03:08:36;101801.63;;;11.59;100.00
31538;BME280;18147;51.952;6.146;2023-05-14T03:11:05;101799.28;;;11.53;100.00
31538;BME280;18147;51.952;6.146;2023-05-14T03:13:35;101798.28;;;11.38;100.00
31538;BME280;18147;51.952;6.146;2023-05-14T03:16:01;101793.41;;;11.47;100.00
31538;BME280;18147;51.952;6.146;2023-05-14T03:18:27;101802.94;;;11.35;100.00
31538;BME280;18147;51.952;6.146;2023-05-14T03:20:55;101806.13;;;11.41;100.00
31538;BME280;18147;51.952;6.146;2023-05-14T03:23:21;101792.53;;;11.29;100.00
31538;BME280;18147;51.952;6.146;2023-05-14T03:25:47;101794.53;;;11.25;100.00
31538;BME280;18147;51.952;6.146;2023-05-14T03:28:12;101790.72;;;11.29;100.00
31538;BME280;18147;51.952;6.146;2023-05-14T03:30:39;101787.53;;;11.40;100.00
31538;BME280;18147;51.952;6.146;2023-05-14T03:33:12;101793.09;;;11.35;100.00
31538;BME280;18147;51.952;6.146;2023-05-14T03:35:37;101785.88;;;11.55;100.00
31538;BME280;18147;51.952;6.146;2023-05-14T03:38:03;101777.31;;;11.31;100.00
31538;BME280;18147;51.952;6.146;2023-05-14T03:40:32;101788.31;;;11.25;100.00
31538;BME280;18147;51.952;6.146;2023-05-14T03:42:58;101785.75;;;11.04;100.00
31538;BME280;18147;51.952;6.146;2023-05-14T03:45:24;101778.94;;;10.99;100.00
31538;BME280;18147;51.952;6.146;2023-05-14T03:47:51;101776.13;;;11.02;100.00
31538;BME280;18147;51.952;6.146;2023-05-14T03:50:20;101774.81;;;11.10;100.00
31538;BME280;18147;51.952;6.146;2023-05-14T03:52:46;101772.03;;;11.12;100.00
31538;BME280;18147;51.952;6.146;2023-05-14T03:55:11;101775.75;;;11.09;100.00
31538;BME280;18147;51.952;6.146;2023-05-14T03:57:37;101777.06;;;11.01;100.00
31538;BME280;18147;51.952;6.146;2023-05-14T04:00:05;101771.66;;;11.20;100.00
31538;BME280;18147;51.952;6.146;2023-05-14T04:02:46;101777.78;;;11.39;100.00
31538;BME280;18147;51.952;6.146;2023-05-14T04:05:11;101769.75;;;11.39;100.00
31538;BME280;18147;51.952;6.146;2023-05-14T04:07:37;101775.28;;;11.36;100.00
31538;BME280;18147;51.952;6.146;2023-05-14T04:10:03;101777.09;;;11.35;100.00
31538;BME280;18147;51.952;6.146;2023-05-14T04:12:30;101778.81;;;11.36;100.00
31538;BME280;18147;51.952;6.146;2023-05-14T04:14:56;101780.91;;;11.47;100.00
31538;BME280;18147;51.952;6.146;2023-05-14T04:17:22;101778.44;;;11.77;100.00
31538;BME280;18147;51.952;6.146;2023-05-14T04:19:48;101780.22;;;11.94;100.00
31538;BME280;18147;51.952;6.146;2023-05-14T04:22:13;101772.06;;;12.13;100.00
31538;BME280;18147;51.952;6.146;2023-05-14T04:24:39;101772.88;;;12.31;100.00
31538;BME280;18147;51.952;6.146;2023-05-14T04:27:13;101783.59;;;12.31;100.00
31538;BME280;18147;51.952;6.146;2023-05-14T04:29:43;101772.41;;;12.70;100.00
31538;BME280;18147;51.952;6.146;2023-05-14T04:32:09;101778.84;;;12.52;100.00
31538;BME280;18147;51.952;6.146;2023-05-14T04:34:38;101773.28;;;12.39;100.00
31538;BME280;18147;51.952;6.146;2023-05-14T04:37:07;101774.78;;;12.60;100.00
31538;BME280;18147;51.952;6.146;2023-05-14T04:39:33;101767.13;;;12.84;100.00
31538;BME280;18147;51.952;6.146;2023-05-14T04:41:58;101772.53;;;12.53;100.00
31538;BME280;18147;51.952;6.146;2023-05-14T04:44:24;101774.41;;;12.19;100.00
31538;BME280;18147;51.952;6.146;2023-05-14T04:46:50;101776.75;;;12.57;100.00
31538;BME280;18147;51.952;6.146;2023-05-14T04:49:16;101770.34;;;12.12;100.00
31538;BME280;18147;51.952;6.146;2023-05-14T04:51:42;101778.75;;;12.22;100.00
31538;BME280;18147;51.952;6.146;2023-05-14T04:54:09;101771.13;;;12.30;100.00
31538;BME280;18147;51.952;6.146;2023-05-14T04:56:35;101773.50;;;12.52;100.00
31538;BME280;18147;51.952;6.146;2023-05-14T04:59:00;101767.53;;;12.62;100.00
31538;BME280;18147;51.952;6.146;2023-05-14T05:01:26;101780.47;;;12.23;100.00
31538;BME280;18147;51.952;6.146;2023-05-14T05:03:51;101765.69;;;12.79;100.00
31538;BME280;18147;51.952;6.146;2023-05-14T05:06:17;101776.50;;;12.61;100.00
31538;BME280;18147;51.952;6.146;2023-05-14T05:08:43;101768.28;;;12.49;100.00
31538;BME280;18147;51.952;6.146;2023-05-14T05:11:09;101772.09;;;12.60;100.00
31538;BME280;18147;51.952;6.146;2023-05-14T05:13:37;101771.03;;;12.79;100.00
31538;BME280;18147;51.952;6.146;2023-05-14T05:16:03;101774.56;;;13.69;100.00
31538;BME280;18147;51.952;6.146;2023-05-14T05:18:33;101771.19;;;13.37;100.00
31538;BME280;18147;51.952;6.146;2023-05-14T05:20:59;101766.53;;;14.12;100.00
31538;BME280;18147;51.952;6.146;2023-05-14T05:23:25;101755.81;;;15.73;100.00
31538;BME280;18147;51.952;6.146;2023-05-14T05:25:50;101761.66;;;15.67;100.00
31538;BME280;18147;51.952;6.146;2023-05-14T05:28:16;101766.75;;;15.44;100.00
31538;BME280;18147;51.952;6.146;2023-05-14T05:30:42;101761.41;;;15.57;100.00
31538;BME280;18147;51.952;6.146;2023-05-14T05:33:10;101758.09;;;15.92;100.00
31538;BME280;18147;51.952;6.146;2023-05-14T05:35:36;101762.97;;;16.23;100.00
31538;BME280;18147;51.952;6.146;2023-05-14T05:38:07;101756.63;;;16.85;100.00
31538;BME280;18147;51.952;6.146;2023-05-14T05:40:33;101764.16;;;16.56;100.00
31538;BME280;18147;51.952;6.146;2023-05-14T05:43:00;101758.47;;;16.85;100.00
31538;BME280;18147;51.952;6.146;2023-05-14T05:45:26;101756.81;;;17.88;99.25
31538;BME280;18147;51.952;6.146;2023-05-14T05:47:51;101756.38;;;17.47;98.58
31538;BME280;18147;51.952;6.146;2023-05-14T05:50:20;101758.00;;;16.91;100.00
31538;BME280;18147;51.952;6.146;2023-05-14T05:52:45;101760.34;;;16.47;100.00
31538;BME280;18147;51.952;6.146;2023-05-14T05:55:20;101757.63;;;16.84;100.00
31538;BME280;18147;51.952;6.146;2023-05-14T05:57:46;101765.28;;;15.66;100.00
31538;BME280;18147;51.952;6.146;2023-05-14T06:00:12;101769.69;;;15.14;100.00
31538;BME280;18147;51.952;6.146;2023-05-14T06:02:42;101765.72;;;15.07;100.00
31538;BME280;18147;51.952;6.146;2023-05-14T06:05:09;101767.97;;;16.04;100.00
31538;BME280;18147;51.952;6.146;2023-05-14T06:07:38;101765.47;;;15.37;100.00
31538;BME280;18147;51.952;6.146;2023-05-14T06:10:07;101769.50;;;15.83;100.00
31538;BME280;18147;51.952;6.146;2023-05-14T06:12:33;101766.03;;;15.80;100.00
31538;BME280;18147;51.952;6.146;2023-05-14T06:14:58;101772.22;;;16.32;100.00
31538;BME280;18147;51.952;6.146;2023-05-14T06:17:24;101766.72;;;16.21;100.00
31538;BME280;18147;51.952;6.146;2023-05-14T06:19:50;101765.25;;;16.53;100.00
31538;BME280;18147;51.952;6.146;2023-05-14T06:22:16;101771.22;;;16.82;100.00
31538;BME280;18147;51.952;6.146;2023-05-14T06:24:42;101772.94;;;16.71;100.00
31538;BME280;18147;51.952;6.146;2023-05-14T06:27:09;101772.75;;;16.24;100.00
31538;BME280;18147;51.952;6.146;2023-05-14T06:29:35;101782.53;;;16.38;100.00
31538;BME280;18147;51.952;6.146;2023-05-14T06:32:03;101776.03;;;16.53;100.00
31538;BME280;18147;51.952;6.146;2023-05-14T06:34:29;101774.78;;;16.70;100.00
31538;BME280;18147;51.952;6.146;2023-05-14T06:36:55;101774.44;;;17.23;100.00
31538;BME280;18147;51.952;6.146;2023-05-14T06:39:22;101772.63;;;17.92;100.00
31538;BME280;18147;51.952;6.146;2023-05-14T06:41:47;101773.25;;;18.18;96.61
31538;BME280;18147;51.952;6.146;2023-05-14T06:44:13;101779.59;;;17.26;100.00
31538;BME280;18147;51.952;6.146;2023-05-14T06:46:39;101771.13;;;16.95;100.00
31538;BME280;18147;51.952;6.146;2023-05-14T06:49:07;101773.16;;;17.97;100.00
31538;BME280;18147;51.952;6.146;2023-05-14T06:51:33;101773.84;;;18.22;97.63
31538;BME280;18147;51.952;6.146;2023-05-14T06:54:01;101760.63;;;18.19;98.17
31538;BME280;18147;51.952;6.146;2023-05-14T06:56:28;101765.88;;;18.20;100.00
31538;BME280;18147;51.952;6.146;2023-05-14T06:58:54;101764.84;;;17.65;100.00
31538;BME280;18147;51.952;6.146;2023-05-14T07:01:20;101756.63;;;18.56;100.00
31538;BME280;18147;51.952;6.146;2023-05-14T07:03:46;101757.72;;;17.53;100.00
31538;BME280;18147;51.952;6.146;2023-05-14T07:06:11;101755.31;;;18.17;100.00
31538;BME280;18147;51.952;6.146;2023-05-14T07:08:38;101757.41;;;18.25;100.00
31538;BME280;18147;51.952;6.146;2023-05-14T07:11:10;101761.31;;;18.43;96.56
31538;BME280;18147;51.952;6.146;2023-05-14T07:13:36;101756.59;;;18.68;94.19
31538;BME280;18147;51.952;6.146;2023-05-14T07:16:06;101752.91;;;18.80;93.79
31538;BME280;18147;51.952;6.146;2023-05-14T07:18:35;101745.50;;;19.14;90.84
31538;BME280;18147;51.952;6.146;2023-05-14T07:21:01;101750.44;;;18.88;91.77
31538;BME280;18147;51.952;6.146;2023-05-14T07:23:32;101750.06;;;18.81;94.40
31538;BME280;18147;51.952;6.146;2023-05-14T07:26:00;101750.97;;;18.59;95.82
31538;BME280;18147;51.952;6.146;2023-05-14T07:28:26;101757.19;;;18.28;94.46
31538;BME280;18147;51.952;6.146;2023-05-14T07:30:51;101748.91;;;18.41;97.62
31538;BME280;18147;51.952;6.146;2023-05-14T07:33:18;101754.75;;;18.02;99.49
31538;BME280;18147;51.952;6.146;2023-05-14T07:35:43;101752.63;;;17.72;98.11
31538;BME280;18147;51.952;6.146;2023-05-14T07:38:12;101745.41;;;18.72;97.47
31538;BME280;18147;51.952;6.146;2023-05-14T07:40:39;101750.94;;;17.82;96.97
31538;BME280;18147;51.952;6.146;2023-05-14T07:43:08;101737.00;;;18.98;92.74
31538;BME280;18147;51.952;6.146;2023-05-14T07:45:37;101742.09;;;19.33;88.65
31538;BME280;18147;51.952;6.146;2023-05-14T07:48:03;101739.97;;;19.15;88.20
31538;BME280;18147;51.952;6.146;2023-05-14T07:50:30;101743.38;;;19.18;92.40
31538;BME280;18147;51.952;6.146;2023-05-14T07:52:56;101752.72;;;18.27;97.52
31538;BME280;18147;51.952;6.146;2023-05-14T07:55:22;101739.06;;;18.73;93.16
31538;BME280;18147;51.952;6.146;2023-05-14T07:57:47;101732.69;;;18.95;87.84
31538;BME280;18147;51.952;6.146;2023-05-14T08:00:13;101742.69;;;18.83;93.70
31538;BME280;18147;51.952;6.146;2023-05-14T08:02:40;101747.03;;;18.52;94.88
31538;BME280;18147;51.952;6.146;2023-05-14T08:05:07;101730.50;;;18.89;95.45
31538;BME280;18147;51.952;6.146;2023-05-14T08:07:35;101732.56;;;18.42;95.55
31538;BME280;18147;51.952;6.146;2023-05-14T08:10:01;101740.56;;;19.40;94.32
31538;BME280;18147;51.952;6.146;2023-05-14T08:12:27;101741.00;;;18.71;96.09
31538;BME280;18147;51.952;6.146;2023-05-14T08:14:54;101734.47;;;19.06;97.84
31538;BME280;18147;51.952;6.146;2023-05-14T08:17:21;101724.00;;;19.75;92.85
31538;BME280;18147;51.952;6.146;2023-05-14T08:19:47;101737.72;;;19.62;95.27
31538;BME280;18147;51.952;6.146;2023-05-14T08:22:14;101735.31;;;19.90;88.45
31538;BME280;18147;51.952;6.146;2023-05-14T08:24:42;101729.25;;;20.07;80.33
31538;BME280;18147;51.952;6.146;2023-05-14T08:27:09;101733.00;;;20.26;79.20
31538;BME280;18147;51.952;6.146;2023-05-14T08:29:37;101738.09;;;20.09;82.44
31538;BME280;18147;51.952;6.146;2023-05-14T08:32:06;101736.38;;;18.94;89.37
31538;BME280;18147;51.952;6.146;2023-05-14T08:34:34;101745.97;;;19.40;86.83
31538;BME280;18147;51.952;6.146;2023-05-14T08:37:03;101747.84;;;19.60;89.49
31538;BME280;18147;51.952;6.146;2023-05-14T08:39:34;101743.78;;;19.76;89.37
31538;BME280;18147;51.952;6.146;2023-05-14T08:42:12;101744.44;;;20.29;79.68
31538;BME280;18147;51.952;6.146;2023-05-14T08:44:53;101745.91;;;19.72;83.90
31538;BME280;18147;51.952;6.146;2023-05-14T08:47:22;101742.47;;;19.70;84.93
31538;BME280;18147;51.952;6.146;2023-05-14T08:50:02;101746.00;;;19.61;84.98
31538;BME280;18147;51.952;6.146;2023-05-14T08:52:29;101734.09;;;20.04;84.92
31538;BME280;18147;51.952;6.146;2023-05-14T08:54:56;101736.06;;;20.02;86.24
31538;BME280;18147;51.952;6.146;2023-05-14T08:57:24;101740.72;;;20.30;89.56
31538;BME280;18147;51.952;6.146;2023-05-14T08:59:51;101742.22;;;19.73;90.68
31538;BME280;18147;51.952;6.146;2023-05-14T09:02:19;101736.28;;;19.79;89.34
31538;BME280;18147;51.952;6.146;2023-05-14T09:04:49;101732.28;;;20.14;83.74
31538;BME280;18147;51.952;6.146;2023-05-14T09:07:18;101729.28;;;20.17;81.78
31538;BME280;18147;51.952;6.146;2023-05-14T09:09:44;101726.69;;;20.56;80.29
31538;BME280;18147;51.952;6.146;2023-05-14T09:12:10;101723.47;;;20.31;80.11
31538;BME280;18147;51.952;6.146;2023-05-14T09:14:35;101717.13;;;20.61;75.31
31538;BME280;18147;51.952;6.146;2023-05-14T09:17:02;101720.91;;;20.30;78.94
31538;BME280;18147;51.952;6.146;2023-05-14T09:19:30;101711.19;;;20.27;79.32
31538;BME280;18147;51.952;6.146;2023-05-14T09:21:57;101721.97;;;20.08;80.44
31538;BME280;18147;51.952;6.146;2023-05-14T09:24:26;101712.72;;;20.51;78.79
31538;BME280;18147;51.952;6.146;2023-05-14T09:26:56;101711.31;;;20.76;80.43
31538;BME280;18147;51.952;6.146;2023-05-14T09:29:26;101701.03;;;20.89;76.30
31538;BME280;18147;51.952;6.146;2023-05-14T09:31:53;101691.19;;;20.68;76.79
31538;BME280;18147;51.952;6.146;2023-05-14T09:36:49;101693.84;;;21.27;69.17
31538;BME280;18147;51.952;6.146;2023-05-14T09:39:18;101688.72;;;21.80;67.48
31538;BME280;18147;51.952;6.146;2023-05-14T09:41:44;101685.88;;;21.72;67.02
31538;BME280;18147;51.952;6.146;2023-05-14T09:44:09;101691.88;;;22.03;67.79
31538;BME280;18147;51.952;6.146;2023-05-14T09:46:35;101692.63;;;21.58;68.90
31538;BME280;18147;51.952;6.146;2023-05-14T09:49:01;101684.03;;;22.00;67.37
31538;BME280;18147;51.952;6.146;2023-05-14T09:51:29;101687.28;;;21.76;67.77
31538;BME280;18147;51.952;6.146;2023-05-14T09:53:56;101681.47;;;21.98;66.53
31538;BME280;18147;51.952;6.146;2023-05-14T09:56:21;101677.25;;;22.14;65.85
31538;BME280;18147;51.952;6.146;2023-05-14T09:58:47;101669.16;;;22.32;62.32
31538;BME280;18147;51.952;6.146;2023-05-14T10:01:17;101670.31;;;22.29;63.50
31538;BME280;18147;51.952;6.146;2023-05-14T10:03:43;101679.84;;;22.15;68.35
31538;BME280;18147;51.952;6.146;2023-05-14T10:06:12;101678.75;;;21.98;66.04
31538;BME280;18147;51.952;6.146;2023-05-14T10:08:41;101674.41;;;21.78;63.95
31538;BME280;18147;51.952;6.146;2023-05-14T10:11:12;101668.44;;;21.75;63.72
31538;BME280;18147;51.952;6.146;2023-05-14T10:13:41;101664.47;;;21.69;67.58
31538;BME280;18147;51.952;6.146;2023-05-14T10:18:45;101659.19;;;21.95;62.57
31538;BME280;18147;51.952;6.146;2023-05-14T10:21:13;101656.34;;;22.42;61.32
31538;BME280;18147;51.952;6.146;2023-05-14T10:23:41;101652.16;;;22.65;63.42
31538;BME280;18147;51.952;6.146;2023-05-14T10:26:11;101649.94;;;21.88;65.30
31538;BME280;18147;51.952;6.146;2023-05-14T10:28:38;101650.41;;;22.82;63.71
31538;BME280;18147;51.952;6.146;2023-05-14T10:31:03;101644.91;;;22.74;59.59
31538;BME280;18147;51.952;6.146;2023-05-14T10:33:45;101649.38;;;22.39;62.06
31538;BME280;18147;51.952;6.146;2023-05-14T10:36:11;101649.03;;;21.97;61.53
31538;BME280;18147;51.952;6.146;2023-05-14T10:38:37;101657.63;;;21.65;59.99
31538;BME280;18147;51.952;6.146;2023-05-14T10:41:11;101639.97;;;22.52;57.63
31538;BME280;18147;51.952;6.146;2023-05-14T10:43:39;101644.44;;;22.43;58.76
31538;BME280;18147;51.952;6.146;2023-05-14T10:46:06;101640.50;;;22.37;55.31
31538;BME280;18147;51.952;6.146;2023-05-14T10:48:33;101638.75;;;23.08;52.22
31538;BME280;18147;51.952;6.146;2023-05-14T10:51:00;101627.75;;;23.17;52.44
31538;BME280;18147;51.952;6.146;2023-05-14T10:53:37;101625.69;;;23.11;50.96
31538;BME280;18147;51.952;6.146;2023-05-14T10:56:10;101619.63;;;22.56;52.56
31538;BME280;18147;51.952;6.146;2023-05-14T10:58:41;101624.06;;;23.26;50.82
31538;BME280;18147;51.952;6.146;2023-05-14T11:01:10;101625.41;;;23.22;53.77
31538;BME280;18147;51.952;6.146;2023-05-14T11:03:44;101624.94;;;22.83;57.11
31538;BME280;18147;51.952;6.146;2023-05-14T11:06:13;101620.22;;;23.37;51.68
31538;BME280;18147;51.952;6.146;2023-05-14T11:08:40;101610.06;;;22.69;53.54
31538;BME280;18147;51.952;6.146;2023-05-14T11:11:07;101615.16;;;22.90;58.61
31538;BME280;18147;51.952;6.146;2023-05-14T11:13:34;101605.97;;;22.73;55.88
31538;BME280;18147;51.952;6.146;2023-05-14T11:16:01;101615.41;;;22.43;55.27
31538;BME280;18147;51.952;6.146;2023-05-14T11:18:34;101605.06;;;23.09;52.66
31538;BME280;18147;51.952;6.146;2023-05-14T11:21:05;101606.16;;;23.16;50.80
31538;BME280;18147;51.952;6.146;2023-05-14T11:23:31;101609.66;;;22.46;53.17
31538;BME280;18147;51.952;6.146;2023-05-14T11:25:56;101603.03;;;22.85;56.43
31538;BME280;18147;51.952;6.146;2023-05-14T11:28:23;101601.38;;;23.10;54.37
31538;BME280;18147;51.952;6.146;2023-05-14T11:30:50;101595.28;;;23.50;51.88
31538;BME280;18147;51.952;6.146;2023-05-14T11:33:16;101596.47;;;22.69;53.96
31538;BME280;18147;51.952;6.146;2023-05-14T11:35:44;101603.50;;;22.62;55.35
31538;BME280;18147;51.952;6.146;2023-05-14T11:38:18;101588.28;;;23.13;53.64
31538;BME280;18147;51.952;6.146;2023-05-14T11:40:54;101588.03;;;23.24;53.31
31538;BME280;18147;51.952;6.146;2023-05-14T11:43:20;101580.66;;;22.91;54.75
31538;BME280;18147;51.952;6.146;2023-05-14T11:45:52;101571.22;;;23.71;51.99
31538;BME280;18147;51.952;6.146;2023-05-14T11:48:19;101583.81;;;23.38;56.24
31538;BME280;18147;51.952;6.146;2023-05-14T11:50:47;101581.19;;;23.20;54.54
31538;BME280;18147;51.952;6.146;2023-05-14T11:53:25;101574.63;;;23.39;49.75
31538;BME280;18147;51.952;6.146;2023-05-14T11:55:53;101575.91;;;23.95;49.90
31538;BME280;18147;51.952;6.146;2023-05-14T11:58:19;101580.66;;;24.01;51.38
31538;BME280;18147;51.952;6.146;2023-05-14T12:00:45;101580.34;;;24.13;48.15
31538;BME280;18147;51.952;6.146;2023-05-14T12:03:13;101566.66;;;23.80;47.89
31538;BME280;18147;51.952;6.146;2023-05-14T12:05:39;101562.19;;;24.38;48.09
31538;BME280;18147;51.952;6.146;2023-05-14T12:08:21;101566.94;;;24.44;46.82
31538;BME280;18147;51.952;6.146;2023-05-14T12:10:47;101559.94;;;24.49;44.82
31538;BME280;18147;51.952;6.146;2023-05-14T12:13:15;101559.25;;;24.23;49.99
31538;BME280;18147;51.952;6.146;2023-05-14T12:15:55;101559.34;;;23.89;45.91
31538;BME280;18147;51.952;6.146;2023-05-14T12:18:24;101559.56;;;23.95;47.63
31538;BME280;18147;51.952;6.146;2023-05-14T12:20:50;101544.94;;;24.21;46.54
31538;BME280;18147;51.952;6.146;2023-05-14T12:23:23;101547.66;;;24.70;45.37
31538;BME280;18147;51.952;6.146;2023-05-14T12:25:52;101549.38;;;24.63;47.15
31538;BME280;18147;51.952;6.146;2023-05-14T12:28:18;101545.25;;;24.10;44.49
31538;BME280;18147;51.952;6.146;2023-05-14T12:30:45;101546.91;;;23.94;45.23
31538;BME280;18147;51.952;6.146;2023-05-14T12:33:11;101538.59;;;23.96;43.10
31538;BME280;18147;51.952;6.146;2023-05-14T12:35:38;101535.06;;;24.20;43.37
31538;BME280;18147;51.952;6.146;2023-05-14T12:38:04;101541.34;;;24.28;41.37
31538;BME280;18147;51.952;6.146;2023-05-14T12:40:30;101529.09;;;24.73;43.02
31538;BME280;18147;51.952;6.146;2023-05-14T12:42:55;101536.25;;;24.34;40.87
31538;BME280;18147;51.952;6.146;2023-05-14T12:45:21;101538.44;;;23.97;41.18
31538;BME280;18147;51.952;6.146;2023-05-14T12:47:47;101534.72;;;24.15;40.17
31538;BME280;18147;51.952;6.146;2023-05-14T12:50:12;101529.56;;;24.03;39.93
31538;BME280;18147;51.952;6.146;2023-05-14T12:52:41;101528.56;;;24.13;41.00
31538;BME280;18147;51.952;6.146;2023-05-14T12:55:07;101529.56;;;24.03;45.34
31538;BME280;18147;51.952;6.146;2023-05-14T12:57:33;101527.38;;;24.15;44.78